Flight Track Log - Related Links

Times and Time Zones

All times are in EDT time to prevent confusion due to time zone crossing. See the SKW6492 flight status page for this flight to view local times or setup timezone preferences in your user account.

Time Position Orientation Groundspeed Altitude Reporting Facility
EDT Latitude Longitude Course Direction KTS MPH feet Rate Location/Type
Fri 04:56:14 PM 30.2972 -97.7158 291° West 207 238 5,600  Level Houston Center
Fri 04:57:00 PM 30.4318 -97.7120 291° West  Level FlightAware Approximate
Fri 04:57:16 PM 30.3367 -97.7981 299° West 247 284 9,000  Level Houston Center
Fri 04:58:00 PM 30.4719 -97.8225 293° West  Level FlightAware Approximate
Fri 04:58:18 PM 30.3722 -97.8708 300° West 253 291 11,700  Level Houston Center
Fri 04:59:00 PM 30.5112 -97.9334 291° West  Level FlightAware Approximate
Fri 04:59:20 PM 30.4147 -97.9417 305° West 265 305 13,700  Level Houston Center
Fri 05:00:00 PM 30.5485 -98.0453 291° West  Level FlightAware Approximate
Fri 05:00:23 PM 30.4806 -98.0003 323° Northwest 293 337 15,900  Level Houston Center
Fri 05:01:00 PM 30.5858 -98.1572 291° West  Level FlightAware Approximate
Fri 05:01:25 PM 30.5486 -98.0583 324° Northwest 301 346 17,700  Level Houston Center
Fri 05:02:27 PM 30.6389 -98.0853 346° North 326 375 19,300 1,742 Climbing Houston Center
Fri 05:03:29 PM 30.7203 -98.1325 333° Northwest 321 369 21,300 1,742 Climbing Houston Center
Fri 05:04:31 PM 30.7917 -98.2000 321° Northwest 326 375 22,900 1,694 Climbing Houston Center
Fri 05:05:33 PM 30.8747 -98.2786 321° Northwest 327 376 24,800 1,487 Climbing Houston Center
Fri 05:06:28 PM 30.9383 -98.3433 319° Northwest 328 377 25,800 1,148 Climbing Fort Worth Center
Fri 05:07:28 PM 31.0108 -98.4142 320° Northwest 334 384 27,000 1,160 Climbing Fort Worth Center
Fri 05:08:27 PM 31.0875 -98.4856 321° Northwest 341 392 28,100 1,050 Climbing Fort Worth Center
Fri 05:09:28 PM 31.1622 -98.5592 320° Northwest 346 398 29,100 893 Climbing Fort Worth Center
Fri 05:10:28 PM 31.2408 -98.6331 321° Northwest 351 404 29,900 720 Climbing Fort Worth Center
Fri 05:10:43 PM 31.2531 -98.6453 319° Northwest 359 413 30,000 692 Climbing Houston Center
Fri 05:11:46 PM 31.3328 -98.7242 320° Northwest 368 423 30,800 857 Climbing Houston Center
Fri 05:12:28 PM 31.3978 -98.7908 319° Northwest 362 417 31,500 832 Climbing Fort Worth Center
Fri 05:13:27 PM 31.4700 -98.8600 321° Northwest 367 422 32,200 800 Climbing Fort Worth Center
Fri 05:14:28 PM 31.5528 -98.9369 322° Northwest 367 422 33,100 843 Climbing Fort Worth Center
Fri 05:15:28 PM 31.6289 -99.0164 318° Northwest 372 428 33,900 750 Climbing Fort Worth Center
Fri 05:16:28 PM 31.7114 -99.1008 319° Northwest 372 428 34,600 750 Climbing Fort Worth Center
Fri 05:17:28 PM 31.7917 -99.1781 321° Northwest 367 422 35,400 1,050 Climbing Fort Worth Center
Fri 05:18:28 PM 31.8719 -99.2531 322° Northwest 367 422 36,700 1,300 Climbing Fort Worth Center
Fri 05:19:28 PM 31.9439 -99.3256 319° Northwest 360 414 38,000 650 Climbing Fort Worth Center
Fri 05:20:28 PM 32.0161 -99.3956 321° Northwest 349 402 38,000  Level Fort Worth Center
Fri 05:21:28 PM 32.0900 -99.4708 319° Northwest 349 402 38,000  Level Fort Worth Center
Fri 05:22:28 PM 32.1681 -99.5486 320° Northwest 349 402 38,000  Level Fort Worth Center
Fri 05:23:27 PM 32.2458 -99.6267 320° Northwest 360 414 38,000  Level Fort Worth Center
Fri 05:24:28 PM 32.3239 -99.7047 320° Northwest 365 420 38,000  Level Fort Worth Center
Fri 05:25:28 PM 32.3997 -99.7828 319° Northwest 365 420 38,000  Level Fort Worth Center
Fri 05:26:27 PM 32.4733 -99.8561 320° Northwest 359 413 38,000  Level Fort Worth Center
Fri 05:27:28 PM 32.5578 -99.9175 329° Northwest 359 413 38,000  Level Fort Worth Center
Fri 05:28:28 PM 32.6486 -99.9744 332° Northwest 350 403 38,000  Level Fort Worth Center
Fri 05:29:27 PM 32.7433 -100.0314 333° Northwest 363 418 38,000  Level Fort Worth Center
Fri 05:30:28 PM 32.8281 -100.0783 335° Northwest 373 429 38,000  Level Fort Worth Center
Fri 05:31:28 PM 32.9208 -100.1283 336° Northwest 367 422 38,000  Level Fort Worth Center
Fri 05:32:28 PM 33.0028 -100.1953 326° Northwest 357 411 38,000  Level Fort Worth Center
Fri 05:33:28 PM 33.0825 -100.2669 323° Northwest 357 411 38,000  Level Fort Worth Center
Fri 05:35:00 PM 33.2278 -100.3360 323° Northwest  Level FlightAware Approximate
Fri 05:35:28 PM 33.2422 -100.4089 323° Northwest 357 411 38,000  Level Fort Worth Center
Fri 05:36:28 PM 33.3217 -100.4811 323° Northwest 363 418 38,000  Level Fort Worth Center
Fri 05:37:28 PM 33.4036 -100.5511 325° Northwest 363 418 38,000  Level Fort Worth Center
Fri 05:38:28 PM 33.4831 -100.6236 323° Northwest 363 418 38,000  Level Fort Worth Center
Fri 05:39:28 PM 33.5686 -100.7067 321° Northwest 363 418 38,000  Level Fort Worth Center
Fri 05:40:28 PM 33.6419 -100.7717 324° Northwest 363 418 38,000  Level Fort Worth Center
Fri 05:41:28 PM 33.7275 -100.8500 323° Northwest 357 411 38,000  Level Fort Worth Center
Fri 05:42:28 PM 33.8008 -100.9153 324° Northwest 366 421 38,000  Level Fort Worth Center
Fri 05:43:28 PM 33.8800 -100.9911 322° Northwest 366 421 38,000  Level Fort Worth Center
Fri 05:44:28 PM 33.9700 -101.0572 329° Northwest 366 421 38,000  Level Fort Worth Center
Fri 05:45:28 PM 34.0728 -101.1067 338° Northwest 366 421 38,000  Level Fort Worth Center
Fri 05:47:58 PM 34.3081 -101.2153 339° North 376 433 38,000  Level Albuquerque Center
Fri 05:49:00 PM 34.4042 -101.2583 340° North 371 427 38,000  Level Albuquerque Center
Fri 05:50:02 PM 34.5019 -101.3047 339° North 375 432 38,000  Level Albuquerque Center
Fri 05:51:04 PM 34.6175 -101.3592 339° North 373 429 38,000  Level Albuquerque Center
Fri 05:52:05 PM 34.7142 -101.4069 338° Northwest 375 432 38,000  Level Albuquerque Center
Fri 05:53:07 PM 34.8108 -101.4522 339° North 373 429 38,000  Level Albuquerque Center
Fri 05:54:09 PM 34.9072 -101.4975 339° North 372 428 38,000  Level Albuquerque Center
Fri 05:55:11 PM 35.0147 -101.5483 339° North 375 432 38,000  Level Albuquerque Center
Fri 05:56:12 PM 35.1125 -101.5942 339° North 375 432 38,000  Level Albuquerque Center
Fri 05:57:14 PM 35.2086 -101.6403 339° North 369 425 38,000  Level Albuquerque Center
Fri 05:58:16 PM 35.3044 -101.6864 339° North 368 423 38,000  Level Albuquerque Center
Fri 05:59:18 PM 35.3997 -101.7319 339° North 366 421 38,000  Level Albuquerque Center
Fri 06:00:19 PM 35.4964 -101.7783 339° North 368 423 38,000  Level Albuquerque Center
Fri 06:01:21 PM 35.5856 -101.8214 339° North 364 419 38,000  Level Albuquerque Center
Fri 06:02:23 PM 35.6997 -101.8769 338° Northwest 367 422 38,000  Level Albuquerque Center
Fri 06:03:25 PM 35.7953 -101.9231 339° North 368 423 38,000  Level Albuquerque Center
Fri 06:04:26 PM 35.8914 -101.9694 339° North 370 426 38,000  Level Albuquerque Center
Fri 06:05:28 PM 35.9858 -102.0167 338° Northwest 369 425 38,000  Level Albuquerque Center
Fri 06:06:30 PM 36.0811 -102.0633 338° Northwest 369 425 38,000  Level Albuquerque Center
Fri 06:07:32 PM 36.1769 -102.1092 339° North 369 425 38,000  Level Albuquerque Center
Fri 06:08:34 PM 36.2925 -102.1661 338° Northwest 372 428 38,000  Level Albuquerque Center
Fri 06:09:35 PM 36.3878 -102.2133 338° Northwest 370 426 38,000  Level Albuquerque Center
Fri 06:10:37 PM 36.4839 -102.2597 339° North 370 426 38,000  Level Albuquerque Center
Fri 06:11:39 PM 36.5800 -102.3078 338° Northwest 371 427 38,000  Level Albuquerque Center
Fri 06:12:40 PM 36.6753 -102.3542 339° North 369 425 38,000 -146 Level Albuquerque Center
Fri 06:13:42 PM 36.7722 -102.4031 338° Northwest 374 430 37,700 -435 Descending Albuquerque Center
Fri 06:14:44 PM 36.8853 -102.4594 338° Northwest 381 438 37,100 -532 Descending Albuquerque Center
Fri 06:15:46 PM 36.9906 -102.5117 338° Northwest 385 443 36,600 -537 Descending Albuquerque Center
Fri 06:16:47 PM 37.0922 -102.5642 338° Northwest 386 444 36,000 -293 Descending Albuquerque Center
Fri 06:17:49 PM 37.1872 -102.6111 339° North 386 444 36,000  Level Albuquerque Center
Fri 06:18:51 PM 37.2797 -102.6575 338° Northwest 377 434 36,000  Level Albuquerque Center
Fri 06:19:52 PM 37.3875 -102.7122 338° Northwest 375 432 36,000  Level Albuquerque Center
Fri 06:20:33 PM 37.4478 -102.7433 338° Northwest 373 429 36,000  Level Denver Center
Fri 06:21:35 PM 37.5567 -102.7906 341° North 371 427 36,000  Level Denver Center
Fri 06:22:37 PM 37.6528 -102.8203 346° North 370 426 36,000  Level Denver Center
Fri 06:23:39 PM 37.7653 -102.8567 346° North 373 429 36,000  Level Denver Center
Fri 06:24:42 PM 37.8619 -102.8864 346° North 374 430 36,000  Level Denver Center
Fri 06:25:43 PM 37.9744 -102.9222 346° North 375 432 36,000  Level Denver Center
Fri 06:26:45 PM 38.0686 -102.9519 346° North 374 430 36,000 -48 Level Denver Center
Fri 06:27:47 PM 38.1492 -102.9781 346° North 375 432 35,900 -629 Descending Denver Center
Fri 06:28:49 PM 38.2794 -103.0197 346° North 377 434 34,700 -1,344 Descending Denver Center
Fri 06:29:52 PM 38.3944 -103.0569 346° North 380 437 33,100 -1,440 Descending Denver Center
Fri 06:30:54 PM 38.4961 -103.0903 346° North 390 449 31,700 -1,452 Descending Denver Center
Fri 06:31:56 PM 38.5858 -103.1694 325° Northwest 387 445 30,100 -823 Descending Denver Center
Fri 06:32:58 PM 38.6603 -103.2714 313° West 388 447 30,000 -48 Descending Denver Center
Fri 06:34:00 PM 38.7322 -103.3739 312° West 384 442 30,000 -435 Level Denver Center
Fri 06:35:02 PM 38.8133 -103.4856 313° West 381 438 29,100 -1,548 Descending Denver Center
Fri 06:36:04 PM 38.8858 -103.5878 312° West 364 419 26,800 -2,098 Descending Denver Center
Fri 06:37:05 PM 38.9564 -103.6864 313° West 370 426 24,800 -1,951 Descending Denver Center
Fri 06:38:07 PM 39.0253 -103.7858 312° West 369 425 22,800 -1,742 Descending Denver Center
Fri 06:39:09 PM 39.0914 -103.8814 312° West 359 413 21,200 -1,358 Descending Denver Center
Fri 06:40:24 PM 39.1642 -103.9867 312° West 339 390 19,700 -1,139 Descending Denver Center
Fri 06:41:26 PM 39.2281 -104.0772 312° West 293 337 18,600 -1,113 Descending Denver Center
Fri 06:42:28 PM 39.2714 -104.1647 303° West 295 339 17,400 -1,306 Descending Denver Center
Fri 06:43:30 PM 39.2925 -104.2672 285° West 269 310 15,900 -1,317 Descending Denver Center
Fri 06:44:31 PM 39.3142 -104.3581 287° West 264 304 14,700 -1,171 Descending Denver Center
Fri 06:45:33 PM 39.3417 -104.4375 294° West 244 281 13,500 -1,355 Descending Denver Center
Fri 06:46:35 PM 39.3736 -104.5175 297° West 235 270 11,900 -1,500 Descending Denver Center
Fri 06:47:37 PM 39.4231 -104.5681 322° Northwest 232 267 10,400 -1,355 Descending Denver Center
Fri 06:48:39 PM 39.4819 -104.6211 325° Northwest 241 277 9,100 -629 Descending Denver Center
Fri 06:49:41 PM 39.5414 -104.6475 341° North 227 261 9,100 -48 Level Denver Center
Fri 06:50:43 PM 39.6106 -104.6442 North 230 265 9,000 -194 Descending Denver Center
Fri 06:51:45 PM 39.6744 -104.6436 360° North 230 265 8,700 -290 Descending Denver Center

Login

Don't have an account? Register now (free) for customized features, flight alerts, and more!